sensor_id;sensor_type;location;lat;lon;timestamp;pressure;altitude;pressure_sealevel;temperature;humidity
55671;BME280;41551;47.500;8.408;2022-08-03T14:10:09;96110.78;;;32.15;29.28
55671;BME280;41551;47.500;8.408;2022-08-03T14:12:35;96116.25;;;32.18;29.02
55671;BME280;41551;47.500;8.408;2022-08-03T14:15:03;96109.59;;;32.48;29.69
55671;BME280;41551;47.500;8.408;2022-08-03T14:17:34;96102.56;;;32.72;28.05
55671;BME280;41551;47.500;8.408;2022-08-03T14:20:01;96097.41;;;33.00;28.66
55671;BME280;41551;47.500;8.408;2022-08-03T14:22:29;96093.78;;;33.32;28.43
55671;BME280;41551;47.500;8.408;2022-08-03T14:24:56;96094.94;;;33.38;27.34
55671;BME280;41551;47.500;8.408;2022-08-03T14:27:24;96094.59;;;33.28;26.50
55671;BME280;41551;47.500;8.408;2022-08-03T14:29:51;96091.56;;;32.98;26.74
55671;BME280;41551;47.500;8.408;2022-08-03T14:32:17;96095.50;;;32.89;26.92
55671;BME280;41551;47.500;8.408;2022-08-03T14:34:44;96086.09;;;32.98;27.52
55671;BME280;41551;47.500;8.408;2022-08-03T14:37:11;96091.56;;;33.01;27.03
55671;BME280;41551;47.500;8.408;2022-08-03T14:39:38;96086.69;;;33.41;27.05
55671;BME280;41551;47.500;8.408;2022-08-03T14:42:05;96086.34;;;33.39;26.73
55671;BME280;41551;47.500;8.408;2022-08-03T14:44:34;96080.94;;;33.28;26.94
55671;BME280;41551;47.500;8.408;2022-08-03T14:47:01;96078.94;;;33.36;27.07
55671;BME280;41551;47.500;8.408;2022-08-03T14:49:27;96076.34;;;33.78;26.99
55671;BME280;41551;47.500;8.408;2022-08-03T14:51:54;96075.25;;;34.17;26.46
55671;BME280;41551;47.500;8.408;2022-08-03T14:54:21;96068.78;;;34.45;25.87
55671;BME280;41551;47.500;8.408;2022-08-03T14:56:48;96063.63;;;34.51;25.39
55671;BME280;41551;47.500;8.408;2022-08-03T14:59:14;96070.09;;;34.68;25.52
55671;BME280;41551;47.500;8.408;2022-08-03T15:01:43;96068.47;;;34.74;25.12
55671;BME280;41551;47.500;8.408;2022-08-03T15:04:09;96069.47;;;34.91;25.17
55671;BME280;41551;47.500;8.408;2022-08-03T15:06:36;96063.69;;;34.85;25.09
55671;BME280;41551;47.500;8.408;2022-08-03T15:09:03;96068.47;;;34.78;24.47
55671;BME280;41551;47.500;8.408;2022-08-03T15:11:30;96065.72;;;34.78;24.95
55671;BME280;41551;47.500;8.408;2022-08-03T15:13:56;96061.41;;;34.80;25.17
55671;BME280;41551;47.500;8.408;2022-08-03T15:16:23;96061.84;;;34.33;25.04
55671;BME280;41551;47.500;8.408;2022-08-03T15:18:51;96055.34;;;34.13;24.71
55671;BME280;41551;47.500;8.408;2022-08-03T15:21:18;96051.66;;;33.89;25.68
55671;BME280;41551;47.500;8.408;2022-08-03T15:23:45;96045.63;;;34.08;25.18
55671;BME280;41551;47.500;8.408;2022-08-03T15:26:12;96055.66;;;34.22;24.93
55671;BME280;41551;47.500;8.408;2022-08-03T15:28:38;96047.78;;;34.31;24.55
55671;BME280;41551;47.500;8.408;2022-08-03T15:31:05;96040.84;;;34.61;24.74
55671;BME280;41551;47.500;8.408;2022-08-03T15:33:32;96036.91;;;34.97;25.28
55671;BME280;41551;47.500;8.408;2022-08-03T15:36:00;96034.31;;;35.17;24.48
55671;BME280;41551;47.500;8.408;2022-08-03T15:38:27;96033.13;;;35.49;23.59
55671;BME280;41551;47.500;8.408;2022-08-03T15:40:54;96033.56;;;35.44;24.00
55671;BME280;41551;47.500;8.408;2022-08-03T15:43:21;96030.41;;;35.72;24.47
55671;BME280;41551;47.500;8.408;2022-08-03T15:45:48;96028.38;;;35.76;23.70
55671;BME280;41551;47.500;8.408;2022-08-03T15:48:14;96027.63;;;36.00;23.64
55671;BME280;41551;47.500;8.408;2022-08-03T15:50:41;96030.44;;;35.96;22.69
55671;BME280;41551;47.500;8.408;2022-08-03T15:53:09;96029.91;;;36.05;22.62
55671;BME280;41551;47.500;8.408;2022-08-03T15:55:36;96022.31;;;35.89;22.83
55671;BME280;41551;47.500;8.408;2022-08-03T15:58:03;96029.84;;;35.85;22.46
55671;BME280;41551;47.500;8.408;2022-08-03T16:00:29;96024.97;;;35.69;23.19
55671;BME280;41551;47.500;8.408;2022-08-03T16:02:56;96016.69;;;35.72;23.26
55671;BME280;41551;47.500;8.408;2022-08-03T16:05:23;96014.44;;;35.91;22.57
55671;BME280;41551;47.500;8.408;2022-08-03T16:07:50;96019.44;;;36.20;22.08
55671;BME280;41551;47.500;8.408;2022-08-03T16:10:20;96017.34;;;36.51;22.42
55671;BME280;41551;47.500;8.408;2022-08-03T16:12:47;96016.00;;;36.99;22.48
55671;BME280;41551;47.500;8.408;2022-08-03T16:15:14;96016.91;;;37.49;21.59
55671;BME280;41551;47.500;8.408;2022-08-03T16:17:41;96011.34;;;37.86;21.49
55671;BME280;41551;47.500;8.408;2022-08-03T16:20:09;96010.34;;;38.26;21.13
55671;BME280;41551;47.500;8.408;2022-08-03T16:22:40;95998.72;;;38.64;20.76
55671;BME280;41551;47.500;8.408;2022-08-03T16:25:08;96004.69;;;39.17;20.17
55671;BME280;41551;47.500;8.408;2022-08-03T16:27:36;96004.78;;;39.52;19.98
55671;BME280;41551;47.500;8.408;2022-08-03T16:30:04;95992.88;;;39.68;19.31
55671;BME280;41551;47.500;8.408;2022-08-03T16:32:31;96004.38;;;39.67;19.64
55671;BME280;41551;47.500;8.408;2022-08-03T16:34:58;96001.34;;;39.87;19.63
55671;BME280;41551;47.500;8.408;2022-08-03T16:37:25;96000.50;;;39.51;19.68
55671;BME280;41551;47.500;8.408;2022-08-03T16:39:52;95996.97;;;39.38;19.76
55671;BME280;41551;47.500;8.408;2022-08-03T16:42:19;95991.69;;;39.56;19.48
55671;BME280;41551;47.500;8.408;2022-08-03T16:44:47;95995.88;;;39.48;19.83
55671;BME280;41551;47.500;8.408;2022-08-03T16:47:14;96003.38;;;39.35;19.82
55671;BME280;41551;47.500;8.408;2022-08-03T16:49:41;95992.13;;;39.42;19.59
55671;BME280;41551;47.500;8.408;2022-08-03T16:52:08;95993.66;;;39.69;19.48
55671;BME280;41551;47.500;8.408;2022-08-03T16:54:34;95999.16;;;39.82;19.79
55671;BME280;41551;47.500;8.408;2022-08-03T16:57:01;95995.38;;;39.88;19.25
55671;BME280;41551;47.500;8.408;2022-08-03T16:59:28;95995.25;;;40.05;19.61
55671;BME280;41551;47.500;8.408;2022-08-03T17:01:56;95993.16;;;40.09;19.18
55671;BME280;41551;47.500;8.408;2022-08-03T17:04:23;95999.66;;;40.02;19.11
55671;BME280;41551;47.500;8.408;2022-08-03T17:06:50;96002.06;;;40.13;19.03
55671;BME280;41551;47.500;8.408;2022-08-03T17:09:17;96005.63;;;40.13;19.66
55671;BME280;41551;47.500;8.408;2022-08-03T17:11:47;95997.13;;;40.08;19.46
55671;BME280;41551;47.500;8.408;2022-08-03T17:14:15;96000.25;;;39.84;19.09
55671;BME280;41551;47.500;8.408;2022-08-03T17:16:45;95999.69;;;39.89;19.46
55671;BME280;41551;47.500;8.408;2022-08-03T17:19:14;95996.78;;;39.93;19.69
55671;BME280;41551;47.500;8.408;2022-08-03T17:21:55;95998.41;;;39.68;19.52
55671;BME280;41551;47.500;8.408;2022-08-03T17:24:27;95995.63;;;39.30;20.04
55671;BME280;41551;47.500;8.408;2022-08-03T17:26:59;95995.88;;;39.61;19.82
55671;BME280;41551;47.500;8.408;2022-08-03T17:29:27;96002.06;;;39.65;19.52
55671;BME280;41551;47.500;8.408;2022-08-03T17:31:54;96005.09;;;39.93;19.24
55671;BME280;41551;47.500;8.408;2022-08-03T17:34:22;96000.69;;;40.30;18.70
55671;BME280;41551;47.500;8.408;2022-08-03T17:36:49;96003.88;;;39.81;19.58
55671;BME280;41551;47.500;8.408;2022-08-03T17:39:17;96000.50;;;38.70;20.51
55671;BME280;41551;47.500;8.408;2022-08-03T17:41:43;95998.84;;;38.14;21.25
55671;BME280;41551;47.500;8.408;2022-08-03T17:44:10;96005.75;;;37.57;22.11
55671;BME280;41551;47.500;8.408;2022-08-03T17:46:37;96005.34;;;37.02;22.43
55671;BME280;41551;47.500;8.408;2022-08-03T17:49:04;96009.25;;;36.64;23.63
55671;BME280;41551;47.500;8.408;2022-08-03T17:51:36;96011.22;;;36.20;24.17
55671;BME280;41551;47.500;8.408;2022-08-03T17:54:11;96010.63;;;35.85;25.54
55671;BME280;41551;47.500;8.408;2022-08-03T17:56:43;96011.88;;;35.53;25.44
55671;BME280;41551;47.500;8.408;2022-08-03T17:59:19;96010.78;;;35.19;26.36
55671;BME280;41551;47.500;8.408;2022-08-03T18:01:54;96006.63;;;34.77;27.15
55671;BME280;41551;47.500;8.408;2022-08-03T18:04:45;96024.78;;;34.25;28.83
55671;BME280;41551;47.500;8.408;2022-08-03T18:07:20;96022.88;;;33.70;29.49
55671;BME280;41551;47.500;8.408;2022-08-03T18:09:48;96024.28;;;33.33;29.35
55671;BME280;41551;47.500;8.408;2022-08-03T18:12:24;96021.34;;;32.94;29.68
55671;BME280;41551;47.500;8.408;2022-08-03T18:14:55;96028.47;;;32.59;30.84
55671;BME280;41551;47.500;8.408;2022-08-03T18:17:28;96021.91;;;32.32;31.35
55671;BME280;41551;47.500;8.408;2022-08-03T18:19:55;96021.53;;;32.19;30.98
55671;BME280;41551;47.500;8.408;2022-08-03T18:22:24;96019.97;;;32.07;31.22
55671;BME280;41551;47.500;8.408;2022-08-03T18:24:51;96015.69;;;31.99;32.13
55671;BME280;41551;47.500;8.408;2022-08-03T18:27:19;96023.88;;;32.06;31.91
55671;BME280;41551;47.500;8.408;2022-08-03T18:29:47;96017.25;;;31.93;31.43
55671;BME280;41551;47.500;8.408;2022-08-03T18:32:15;96025.06;;;31.80;31.92
55671;BME280;41551;47.500;8.408;2022-08-03T18:34:43;96027.00;;;31.65;32.23
55671;BME280;41551;47.500;8.408;2022-08-03T18:37:10;96019.91;;;31.35;32.88
55671;BME280;41551;47.500;8.408;2022-08-03T18:39:40;96029.59;;;31.14;33.62
55671;BME280;41551;47.500;8.408;2022-08-03T18:42:07;96023.66;;;30.94;33.97
55671;BME280;41551;47.500;8.408;2022-08-03T18:44:35;96022.81;;;30.69;33.49
55671;BME280;41551;47.500;8.408;2022-08-03T18:47:14;96024.22;;;30.44;33.96
55671;BME280;41551;47.500;8.408;2022-08-03T18:50:00;96022.44;;;30.11;34.94
55671;BME280;41551;47.500;8.408;2022-08-03T18:52:36;96023.78;;;29.83;34.23
55671;BME280;41551;47.500;8.408;2022-08-03T18:55:10;96026.78;;;29.74;35.00
55671;BME280;41551;47.500;8.408;2022-08-03T18:57:43;96024.41;;;29.69;35.32
55671;BME280;41551;47.500;8.408;2022-08-03T19:00:11;96033.59;;;29.54;35.95
55671;BME280;41551;47.500;8.408;2022-08-03T19:02:46;96028.00;;;29.39;36.69
55671;BME280;41551;47.500;8.408;2022-08-03T19:05:16;96038.72;;;29.21;36.03
55671;BME280;41551;47.500;8.408;2022-08-03T19:07:56;96034.53;;;28.97;37.06
55671;BME280;41551;47.500;8.408;2022-08-03T19:10:28;96040.53;;;28.80;37.20
55671;BME280;41551;47.500;8.408;2022-08-03T19:12:57;96043.38;;;28.60;38.86
55671;BME280;41551;47.500;8.408;2022-08-03T19:15:27;96057.41;;;28.39;39.37
55671;BME280;41551;47.500;8.408;2022-08-03T19:17:55;96043.22;;;28.23;40.60
55671;BME280;41551;47.500;8.408;2022-08-03T19:20:23;96055.72;;;28.04;40.68
55671;BME280;41551;47.500;8.408;2022-08-03T19:22:52;96058.06;;;27.82;41.24
55671;BME280;41551;47.500;8.408;2022-08-03T19:25:19;96059.31;;;27.65;40.81
55671;BME280;41551;47.500;8.408;2022-08-03T19:27:48;96060.84;;;27.43;40.72
55671;BME280;41551;47.500;8.408;2022-08-03T19:30:16;96061.94;;;27.19;42.15
55671;BME280;41551;47.500;8.408;2022-08-03T19:32:58;96069.63;;;26.98;42.12
55671;BME280;41551;47.500;8.408;2022-08-03T19:35:25;96065.22;;;26.89;42.49
55671;BME280;41551;47.500;8.408;2022-08-03T19:37:51;96063.59;;;26.85;41.59
55671;BME280;41551;47.500;8.408;2022-08-03T19:40:18;96067.44;;;26.84;44.29
55671;BME280;41551;47.500;8.408;2022-08-03T19:42:49;96062.31;;;26.79;44.05
55671;BME280;41551;47.500;8.408;2022-08-03T19:45:25;96066.50;;;26.60;44.73
55671;BME280;41551;47.500;8.408;2022-08-03T19:47:59;96070.03;;;26.45;45.41
55671;BME280;41551;47.500;8.408;2022-08-03T19:50:30;96072.50;;;26.34;45.19
55671;BME280;41551;47.500;8.408;2022-08-03T19:52:57;96072.97;;;26.20;45.68
55671;BME280;41551;47.500;8.408;2022-08-03T19:55:28;96066.09;;;26.06;46.25
55671;BME280;41551;47.500;8.408;2022-08-03T19:57:57;96071.38;;;25.87;47.10
55671;BME280;41551;47.500;8.408;2022-08-03T20:00:25;96078.69;;;25.70;47.69
55671;BME280;41551;47.500;8.408;2022-08-03T20:02:54;96072.16;;;25.56;47.87
55671;BME280;41551;47.500;8.408;2022-08-03T20:05:22;96080.50;;;25.50;48.19
55671;BME280;41551;47.500;8.408;2022-08-03T20:07:49;96073.69;;;25.41;48.47
55671;BME280;41551;47.500;8.408;2022-08-03T20:10:16;96075.41;;;25.33;48.17
55671;BME280;41551;47.500;8.408;2022-08-03T20:12:44;96072.25;;;25.31;47.63
55671;BME280;41551;47.500;8.408;2022-08-03T20:15:12;96088.47;;;25.31;48.56
55671;BME280;41551;47.500;8.408;2022-08-03T20:17:39;96081.50;;;25.30;49.59
55671;BME280;41551;47.500;8.408;2022-08-03T20:20:07;96083.63;;;25.24;48.70
55671;BME280;41551;47.500;8.408;2022-08-03T20:22:35;96084.31;;;25.21;49.20
55671;BME280;41551;47.500;8.408;2022-08-03T20:25:06;96080.88;;;25.08;49.97
55671;BME280;41551;47.500;8.408;2022-08-03T20:27:38;96080.69;;;25.01;51.36
55671;BME280;41551;47.500;8.408;2022-08-03T20:30:09;96079.16;;;24.88;51.90
55671;BME280;41551;47.500;8.408;2022-08-03T20:32:37;96084.81;;;24.82;51.76
55671;BME280;41551;47.500;8.408;2022-08-03T20:35:06;96083.91;;;24.78;51.65
55671;BME280;41551;47.500;8.408;2022-08-03T20:37:33;96081.91;;;24.63;51.83
55671;BME280;41551;47.500;8.408;2022-08-03T20:40:00;96076.19;;;24.52;52.24
55671;BME280;41551;47.500;8.408;2022-08-03T20:42:27;96075.50;;;24.55;52.46
55671;BME280;41551;47.500;8.408;2022-08-03T20:44:54;96079.22;;;24.51;54.50
55671;BME280;41551;47.500;8.408;2022-08-03T20:47:22;96074.16;;;24.49;53.43
55671;BME280;41551;47.500;8.408;2022-08-03T20:49:50;96077.84;;;24.44;53.11
55671;BME280;41551;47.500;8.408;2022-08-03T20:52:17;96076.50;;;24.38;55.18
55671;BME280;41551;47.500;8.408;2022-08-03T20:54:44;96071.59;;;24.28;54.92
55671;BME280;41551;47.500;8.408;2022-08-03T20:57:12;96070.59;;;24.20;55.13
55671;BME280;41551;47.500;8.408;2022-08-03T20:59:39;96063.63;;;24.07;56.17
55671;BME280;41551;47.500;8.408;2022-08-03T21:02:07;96075.41;;;24.02;56.62
55671;BME280;41551;47.500;8.408;2022-08-03T21:04:35;96069.03;;;23.94;57.06
55671;BME280;41551;47.500;8.408;2022-08-03T21:07:05;96071.81;;;23.86;57.21
55671;BME280;41551;47.500;8.408;2022-08-03T21:09:37;96065.47;;;23.82;58.39
55671;BME280;41551;47.500;8.408;2022-08-03T21:12:12;96068.41;;;23.76;57.99
55671;BME280;41551;47.500;8.408;2022-08-03T21:14:43;96059.84;;;23.74;57.85
55671;BME280;41551;47.500;8.408;2022-08-03T21:17:12;96060.53;;;23.71;57.99
55671;BME280;41551;47.500;8.408;2022-08-03T21:19:39;96066.38;;;23.61;58.50
55671;BME280;41551;47.500;8.408;2022-08-03T21:22:12;96065.91;;;23.59;58.69
55671;BME280;41551;47.500;8.408;2022-08-03T21:24:39;96067.69;;;23.55;59.24
55671;BME280;41551;47.500;8.408;2022-08-03T21:27:07;96066.91;;;23.54;59.82
55671;BME280;41551;47.500;8.408;2022-08-03T21:29:36;96059.50;;;23.51;60.20
55671;BME280;41551;47.500;8.408;2022-08-03T21:32:04;96061.94;;;23.44;60.71
55671;BME280;41551;47.500;8.408;2022-08-03T21:34:33;96056.44;;;23.40;61.02
55671;BME280;41551;47.500;8.408;2022-08-03T21:37:00;96060.91;;;23.36;61.54
55671;BME280;41551;47.500;8.408;2022-08-03T21:39:29;96057.44;;;23.36;61.87
55671;BME280;41551;47.500;8.408;2022-08-03T21:41:55;96061.91;;;23.32;61.97
55671;BME280;41551;47.500;8.408;2022-08-03T21:44:22;96068.88;;;23.33;62.41
55671;BME280;41551;47.500;8.408;2022-08-03T21:46:52;96073.91;;;23.34;62.50
55671;BME280;41551;47.500;8.408;2022-08-03T21:49:19;96068.78;;;23.41;61.93
55671;BME280;41551;47.500;8.408;2022-08-03T21:51:47;96064.38;;;23.24;63.06
55671;BME280;41551;47.500;8.408;2022-08-03T21:54:15;96068.47;;;23.10;63.77
55671;BME280;41551;47.500;8.408;2022-08-03T21:56:46;96069.53;;;23.09;63.60
55671;BME280;41551;47.500;8.408;2022-08-03T21:59:15;96064.47;;;23.07;62.93
55671;BME280;41551;47.500;8.408;2022-08-03T22:01:45;96070.13;;;22.93;64.24
55671;BME280;41551;47.500;8.408;2022-08-03T22:04:13;96074.59;;;22.89;63.14
55671;BME280;41551;47.500;8.408;2022-08-03T22:06:43;96071.63;;;22.82;62.81
55671;BME280;41551;47.500;8.408;2022-08-03T22:09:10;96071.13;;;22.67;64.28
55671;BME280;41551;47.500;8.408;2022-08-03T22:11:37;96076.28;;;22.73;62.72
55671;BME280;41551;47.500;8.408;2022-08-03T22:14:05;96074.00;;;22.62;64.39
55671;BME280;41551;47.500;8.408;2022-08-03T22:16:32;96076.56;;;22.59;64.38
55671;BME280;41551;47.500;8.408;2022-08-03T22:18:58;96075.50;;;22.51;64.57
55671;BME280;41551;47.500;8.408;2022-08-03T22:21:28;96079.28;;;22.50;65.70
55671;BME280;41551;47.500;8.408;2022-08-03T22:23:58;96077.41;;;22.50;66.16
55671;BME280;41551;47.500;8.408;2022-08-03T22:26:26;96079.63;;;22.48;66.94
55671;BME280;41551;47.500;8.408;2022-08-03T22:28:53;96072.53;;;22.44;67.28
55671;BME280;41551;47.500;8.408;2022-08-03T22:31:23;96073.06;;;22.37;68.33
55671;BME280;41551;47.500;8.408;2022-08-03T22:33:51;96072.47;;;22.31;68.77
55671;BME280;41551;47.500;8.408;2022-08-03T22:36:20;96078.00;;;22.26;69.29
55671;BME280;41551;47.500;8.408;2022-08-03T22:38:50;96078.16;;;22.21;70.35
55671;BME280;41551;47.500;8.408;2022-08-03T22:41:18;96085.56;;;22.24;69.79
55671;BME280;41551;47.500;8.408;2022-08-03T22:43:45;96077.50;;;22.24;69.95
55671;BME280;41551;47.500;8.408;2022-08-03T22:46:12;96082.88;;;22.24;70.36
55671;BME280;41551;47.500;8.408;2022-08-03T22:48:43;96081.81;;;22.16;70.26
55671;BME280;41551;47.500;8.408;2022-08-03T22:51:13;96089.63;;;22.09;70.50
55671;BME280;41551;47.500;8.408;2022-08-03T22:53:40;96085.78;;;22.19;70.29
55671;BME280;41551;47.500;8.408;2022-08-03T22:56:07;96090.72;;;22.08;71.04
55671;BME280;41551;47.500;8.408;2022-08-03T22:58:34;96093.47;;;21.91;71.42
55671;BME280;41551;47.500;8.408;2022-08-03T23:01:03;96099.16;;;21.89;71.48
55671;BME280;41551;47.500;8.408;2022-08-03T23:03:32;96100.66;;;21.69;72.81
55671;BME280;41551;47.500;8.408;2022-08-03T23:06:02;96101.13;;;21.71;74.16
55671;BME280;41551;47.500;8.408;2022-08-03T23:08:31;96106.34;;;21.59;73.52
55671;BME280;41551;47.500;8.408;2022-08-03T23:11:03;96111.13;;;21.53;73.67
55671;BME280;41551;47.500;8.408;2022-08-03T23:13:33;96107.47;;;21.49;74.18
55671;BME280;41551;47.500;8.408;2022-08-03T23:16:03;96110.31;;;21.44;75.05
55671;BME280;41551;47.500;8.408;2022-08-03T23:18:34;96107.00;;;21.38;74.93
55671;BME280;41551;47.500;8.408;2022-08-03T23:21:04;96105.28;;;21.34;75.64
55671;BME280;41551;47.500;8.408;2022-08-03T23:23:34;96104.31;;;21.29;75.82
55671;BME280;41551;47.500;8.408;2022-08-03T23:26:03;96109.69;;;21.29;76.63
55671;BME280;41551;47.500;8.408;2022-08-03T23:28:31;96097.88;;;21.22;76.80
55671;BME280;41551;47.500;8.408;2022-08-03T23:31:00;96100.41;;;21.18;77.54
55671;BME280;41551;47.500;8.408;2022-08-03T23:33:28;96099.47;;;21.14;77.60
55671;BME280;41551;47.500;8.408;2022-08-03T23:35:56;96097.22;;;21.25;78.64
55671;BME280;41551;47.500;8.408;2022-08-03T23:38:34;96106.22;;;21.20;77.16
55671;BME280;41551;47.500;8.408;2022-08-03T23:41:02;96097.41;;;21.11;77.78
55671;BME280;41551;47.500;8.408;2022-08-03T23:43:31;96095.22;;;20.96;77.82
55671;BME280;41551;47.500;8.408;2022-08-03T23:45:59;96105.59;;;20.88;78.58
55671;BME280;41551;47.500;8.408;2022-08-03T23:48:28;96097.22;;;20.81;79.25
55671;BME280;41551;47.500;8.408;2022-08-03T23:50:57;96096.59;;;20.75;80.33
55671;BME280;41551;47.500;8.408;2022-08-03T23:53:29;96099.28;;;20.75;80.65
55671;BME280;41551;47.500;8.408;2022-08-03T23:56:11;96093.44;;;20.73;81.16
55671;BME280;41551;47.500;8.408;2022-08-03T23:58:50;96097.41;;;20.76;80.80
